createdAt,value
2022-10-22T00:00:08.522Z,101241.25
2022-10-22T00:02:36.405Z,101235.59
2022-10-22T00:05:04.777Z,101234.28
2022-10-22T00:07:33.826Z,101240.06
2022-10-22T00:10:01.781Z,101230.66
2022-10-22T00:12:29.471Z,101231.84
2022-10-22T00:14:58.423Z,101237.25
2022-10-22T00:17:25.870Z,101231.47
2022-10-22T00:19:53.159Z,101226.88
2022-10-22T00:22:20.869Z,101231.47
2022-10-22T00:24:48.455Z,101234.16
2022-10-22T00:27:16.149Z,101219.47
2022-10-22T00:29:44.385Z,101212.31
2022-10-22T00:32:12.747Z,101209.94
2022-10-22T00:34:40.511Z,101218.66
2022-10-22T00:37:08.357Z,101216.31
2022-10-22T00:39:36.266Z,101216.91
2022-10-22T00:42:04.136Z,101219.59
2022-10-22T00:45:16.491Z,101217.25
2022-10-22T00:47:44.240Z,101219.84
2022-10-22T00:50:16.480Z,101226.94
2022-10-22T00:52:45.449Z,101227.97
2022-10-22T00:55:15.081Z,101229.00
2022-10-22T00:57:43.560Z,101222.06
2022-10-22T01:00:12.552Z,101219.09
2022-10-22T01:02:40.460Z,101210.84
2022-10-22T01:05:08.747Z,101209.44
2022-10-22T01:07:52.445Z,101217.44
2022-10-22T01:10:23.067Z,101215.22
2022-10-22T01:13:13.871Z,101222.50
2022-10-22T01:15:52.952Z,101231.22
2022-10-22T01:18:48.804Z,101223.41
2022-10-22T01:21:37.936Z,101222.50
2022-10-22T01:24:21.295Z,101213.22
2022-10-22T01:27:27.674Z,101220.28
2022-10-22T01:30:08.700Z,101216.91
2022-10-22T01:32:46.170Z,101218.50
2022-10-22T01:35:20.259Z,101202.72
2022-10-22T01:37:53.729Z,101204.88
2022-10-22T01:40:32.046Z,101206.28
2022-10-22T01:43:09.812Z,101203.78
2022-10-22T01:45:59.772Z,101197.56
2022-10-22T01:49:06.206Z,101195.72
2022-10-22T01:51:40.312Z,101190.66
2022-10-22T01:54:35.673Z,101189.59
2022-10-22T01:57:36.318Z,101199.84
2022-10-22T02:00:12.225Z,101188.41
2022-10-22T02:02:44.881Z,101191.13
2022-10-22T02:05:23.894Z,101187.97
2022-10-22T02:07:58.278Z,101188.19
2022-10-22T02:10:27.651Z,101184.66
2022-10-22T02:13:01.784Z,101189.72
2022-10-22T02:15:33.876Z,101191.50
2022-10-22T02:18:03.766Z,101184.38
2022-10-22T02:20:36.330Z,101190.28
2022-10-22T02:23:05.462Z,101185.25
2022-10-22T02:25:36.600Z,101189.13
2022-10-22T02:28:16.856Z,101189.59
2022-10-22T02:30:50.542Z,101184.19
2022-10-22T02:33:33.170Z,101177.97
2022-10-22T02:36:03.434Z,101167.84
2022-10-22T02:38:33.520Z,101172.94
2022-10-22T02:41:02.095Z,101181.72
2022-10-22T02:43:30.991Z,101174.66
2022-10-22T02:45:58.959Z,101171.38
2022-10-22T02:48:27.477Z,101171.47
2022-10-22T02:50:55.894Z,101162.78
2022-10-22T02:53:24.047Z,101170.31
2022-10-22T02:55:52.160Z,101164.66
2022-10-22T02:58:20.181Z,101164.91
2022-10-22T03:00:49.995Z,101168.56
2022-10-22T03:03:18.372Z,101169.88
2022-10-22T03:05:52.754Z,101170.66
2022-10-22T03:08:21.376Z,101172.56
2022-10-22T03:10:49.725Z,101169.06
2022-10-22T03:13:18.412Z,101170.91
2022-10-22T03:15:46.559Z,101171.16
2022-10-22T03:18:14.961Z,101176.94
2022-10-22T03:20:43.262Z,101180.22
2022-10-22T03:23:14.980Z,101183.50
2022-10-22T03:25:45.417Z,101185.16
2022-10-22T03:28:16.700Z,101186.56
2022-10-22T03:30:45.231Z,101185.97
2022-10-22T03:33:13.699Z,101192.66
2022-10-22T03:35:47.925Z,101190.81
2022-10-22T03:38:16.529Z,101189.97
2022-10-22T03:40:46.380Z,101189.41
2022-10-22T03:43:22.927Z,101195.84
2022-10-22T03:45:50.981Z,101198.81
2022-10-22T03:48:19.208Z,101201.97
2022-10-22T03:50:47.216Z,101208.41
2022-10-22T03:53:15.468Z,101206.31
2022-10-22T03:55:43.771Z,101206.31
2022-10-22T03:58:12.486Z,101217.13
2022-10-22T04:00:41.651Z,101207.13
2022-10-22T04:03:09.956Z,101209.72
2022-10-22T04:05:38.144Z,101214.66
2022-10-22T04:08:05.978Z,101213.22
2022-10-22T04:10:34.884Z,101209.34
2022-10-22T04:13:03.602Z,101212.28
2022-10-22T04:15:31.256Z,101220.88
2022-10-22T04:17:59.032Z,101227.09
2022-10-22T04:20:26.483Z,101242.25
2022-10-22T04:22:54.069Z,101246.63
2022-10-22T04:25:21.447Z,101248.25
2022-10-22T04:27:49.033Z,101259.91
2022-10-22T04:30:16.691Z,101265.97
2022-10-22T04:32:44.158Z,101263.38
2022-10-22T04:35:12.087Z,101264.09
2022-10-22T04:37:40.158Z,101278.31
2022-10-22T04:40:09.569Z,101274.75
2022-10-22T04:42:37.080Z,101276.19
2022-10-22T04:45:05.545Z,101271.38
2022-10-22T04:47:33.732Z,101265.59
2022-10-22T04:50:01.416Z,101272.66
2022-10-22T04:52:29.472Z,101286.19
2022-10-22T04:54:57.212Z,101279.22
2022-10-22T04:57:25.139Z,101275.47
2022-10-22T04:59:54.606Z,101290.25
2022-10-22T05:02:22.785Z,101287.31
2022-10-22T05:04:50.418Z,101280.06
2022-10-22T05:07:18.491Z,101292.72
2022-10-22T05:09:46.256Z,101305.28
2022-10-22T05:12:13.919Z,101306.31
2022-10-22T05:14:44.944Z,101302.09
2022-10-22T05:17:13.379Z,101289.53
2022-10-22T05:19:41.919Z,101301.47
2022-10-22T05:22:11.493Z,101290.00
2022-10-22T05:24:40.644Z,101267.22
2022-10-22T05:27:09.050Z,101274.84
2022-10-22T05:29:37.534Z,101270.25
2022-10-22T05:32:05.780Z,101273.56
2022-10-22T05:34:33.939Z,101288.13
2022-10-22T05:37:01.807Z,101281.19
2022-10-22T05:39:30.331Z,101269.34
2022-10-22T05:41:59.174Z,101280.16
2022-10-22T05:44:27.452Z,101266.41
2022-10-22T05:46:55.549Z,101272.06
2022-10-22T05:49:23.324Z,101262.91
2022-10-22T05:51:52.521Z,101272.06
2022-10-22T05:54:22.931Z,101268.06
2022-10-22T05:56:50.337Z,101281.19
2022-10-22T05:59:18.240Z,101279.06
2022-10-22T06:01:46.267Z,101278.47
2022-10-22T06:04:16.652Z,101283.53
2022-10-22T06:06:48.346Z,101276.75
2022-10-22T06:09:27.997Z,101280.63
2022-10-22T06:11:57.190Z,101285.56
2022-10-22T06:14:25.892Z,101275.44
2022-10-22T06:16:53.739Z,101289.06
2022-10-22T06:19:23.439Z,101290.59
2022-10-22T06:21:51.259Z,101292.25
2022-10-22T06:24:18.919Z,101295.41
2022-10-22T06:26:50.962Z,101291.75
2022-10-22T06:29:18.726Z,101298.34
2022-10-22T06:31:46.514Z,101293.38
2022-10-22T06:34:15.509Z,101304.31
2022-10-22T06:36:45.314Z,101304.69
2022-10-22T06:39:14.891Z,101303.28
2022-10-22T06:41:44.958Z,101310.53
2022-10-22T06:44:16.670Z,101308.91
2022-10-22T06:46:45.792Z,101315.75
2022-10-22T06:49:15.375Z,101326.09
2022-10-22T06:51:43.567Z,101334.75
2022-10-22T06:54:12.837Z,101332.84
2022-10-22T06:56:42.564Z,101334.75
2022-10-22T06:59:10.822Z,101340.41
2022-10-22T07:01:39.425Z,101338.31
2022-10-22T07:04:11.588Z,101347.00
2022-10-22T07:06:40.149Z,101355.06
2022-10-22T07:09:08.739Z,101365.66
2022-10-22T07:11:45.954Z,101367.16
2022-10-22T07:14:14.877Z,101375.25
2022-10-22T07:16:43.615Z,101358.53
2022-10-22T07:19:12.206Z,101366.91
2022-10-22T07:21:41.395Z,101377.41
2022-10-22T07:24:09.382Z,101382.72
2022-10-22T07:26:37.469Z,101385.19
2022-10-22T07:29:06.013Z,101385.78
2022-10-22T07:31:33.819Z,101383.81
2022-10-22T07:34:09.178Z,101382.53
2022-10-22T07:36:37.340Z,101386.06
2022-10-22T07:39:08.432Z,101381.72
2022-10-22T07:41:36.656Z,101387.59
2022-10-22T07:44:04.478Z,101398.56
2022-10-22T07:46:32.155Z,101393.16
2022-10-22T07:48:59.850Z,101391.06
2022-10-22T07:51:28.297Z,101397.84
2022-10-22T07:53:57.406Z,101403.78
2022-10-22T07:56:25.237Z,101407.66
2022-10-22T07:58:53.071Z,101399.56
2022-10-22T08:01:20.743Z,101402.78
2022-10-22T08:04:30.646Z,101401.50
2022-10-22T08:07:01.803Z,101410.09
2022-10-22T08:09:39.557Z,101411.03
2022-10-22T08:12:12.359Z,101413.28
2022-10-22T08:14:46.743Z,101417.38
2022-10-22T08:17:14.797Z,101431.28
2022-10-22T08:19:47.936Z,101437.75
2022-10-22T08:22:16.197Z,101432.00
2022-10-22T08:24:44.089Z,101441.53
2022-10-22T08:27:16.990Z,101444.94
2022-10-22T08:29:45.646Z,101440.84
2022-10-22T08:32:13.363Z,101436.97
2022-10-22T08:34:41.922Z,101444.13
2022-10-22T08:37:14.692Z,101443.31
2022-10-22T08:39:42.209Z,101450.97
2022-10-22T08:42:13.460Z,101444.88
2022-10-22T08:45:08.455Z,101449.94
2022-10-22T08:47:59.588Z,101445.13
2022-10-22T08:50:52.840Z,101457.22
2022-10-22T08:53:26.950Z,101460.03
2022-10-22T08:55:55.120Z,101450.63
2022-10-22T08:58:37.039Z,101449.19
2022-10-22T09:01:15.708Z,101446.34
2022-10-22T09:04:13.504Z,101455.41
2022-10-22T09:06:52.153Z,101459.63
2022-10-22T09:09:28.197Z,101461.41
2022-10-22T09:11:59.715Z,101459.50
2022-10-22T09:14:27.643Z,101459.25
2022-10-22T09:17:16.489Z,101458.31
2022-10-22T09:19:57.538Z,101461.03
2022-10-22T09:22:55.602Z,101452.03
2022-10-22T09:25:26.164Z,101461.72
2022-10-22T09:27:58.766Z,101467.41
2022-10-22T09:30:33.872Z,101454.16
2022-10-22T09:33:07.014Z,101453.09
2022-10-22T09:35:44.573Z,101456.19
2022-10-22T09:38:14.919Z,101453.34
2022-10-22T09:40:52.904Z,101456.31
2022-10-22T09:43:21.010Z,101455.00
2022-10-22T09:45:50.094Z,101453.09
2022-10-22T09:48:34.713Z,101452.72
2022-10-22T09:51:25.822Z,101441.50
2022-10-22T09:54:02.438Z,101442.16
2022-10-22T09:56:59.822Z,101437.66
2022-10-22T09:59:41.649Z,101435.94
2022-10-22T10:02:37.073Z,101438.50
2022-10-22T10:05:06.794Z,101435.94
2022-10-22T10:07:36.414Z,101438.88
2022-10-22T10:10:21.937Z,101447.78
2022-10-22T10:13:01.719Z,101448.66
2022-10-22T10:15:51.983Z,101456.13
2022-10-22T10:18:31.028Z,101448.56
2022-10-22T10:21:01.134Z,101450.78
2022-10-22T10:23:44.694Z,101449.34
2022-10-22T10:26:53.143Z,101444.66
2022-10-22T10:29:32.411Z,101439.53
2022-10-22T10:32:23.713Z,101441.88
2022-10-22T10:35:11.454Z,101439.22
2022-10-22T10:38:29.617Z,101438.41
2022-10-22T10:41:06.178Z,101434.75
2022-10-22T10:43:39.268Z,101431.56
2022-10-22T10:46:13.363Z,101423.03
2022-10-22T10:49:01.639Z,101420.75
2022-10-22T10:51:47.188Z,101418.94
2022-10-22T10:54:33.696Z,101415.78
2022-10-22T10:58:00.183Z,101418.50
2022-10-22T11:00:32.974Z,101415.91
2022-10-22T11:03:37.782Z,101415.66
2022-10-22T11:06:12.599Z,101412.50
2022-10-22T11:09:06.057Z,101402.81
2022-10-22T11:11:51.969Z,101404.22
2022-10-22T11:14:30.171Z,101396.88
2022-10-22T11:17:01.939Z,101401.53
2022-10-22T11:19:57.855Z,101397.72
2022-10-22T11:23:06.718Z,101396.41
2022-10-22T11:25:39.991Z,101389.59
2022-10-22T11:28:22.627Z,101386.13
2022-10-22T11:30:57.925Z,101386.72
2022-10-22T11:33:34.267Z,101380.00
2022-10-22T11:36:07.517Z,101378.41
2022-10-22T11:38:36.652Z,101371.63
2022-10-22T11:41:13.143Z,101364.53
2022-10-22T11:44:07.757Z,101367.53
2022-10-22T11:46:58.052Z,101359.94
2022-10-22T11:49:44.317Z,101364.03
2022-10-22T11:52:53.002Z,101355.31
2022-10-22T11:55:51.726Z,101358.31
2022-10-22T11:58:39.524Z,101348.50
2022-10-22T12:01:09.529Z,101343.63
2022-10-22T12:04:14.143Z,101342.53
2022-10-22T12:07:01.817Z,101343.34
2022-10-22T12:09:33.108Z,101337.88
2022-10-22T12:12:13.853Z,101337.06
2022-10-22T12:15:01.237Z,101328.59
2022-10-22T12:17:29.566Z,101331.59
2022-10-22T12:20:02.646Z,101323.16
2022-10-22T12:22:37.832Z,101317.97
2022-10-22T12:25:24.239Z,101317.13
2022-10-22T12:27:55.176Z,101313.59
2022-10-22T12:30:35.201Z,101315.81
2022-10-22T12:33:11.489Z,101305.41
2022-10-22T12:35:52.434Z,101302.44
2022-10-22T12:38:24.681Z,101304.31
2022-10-22T12:40:55.059Z,101301.31
2022-10-22T12:43:28.476Z,101295.59
2022-10-22T12:45:58.256Z,101297.25
2022-10-22T12:48:29.953Z,101282.50
2022-10-22T12:51:01.949Z,101283.59
2022-10-22T12:53:38.489Z,101281.16
2022-10-22T12:56:12.858Z,101278.44
2022-10-22T12:59:08.208Z,101277.34
2022-10-22T13:01:44.875Z,101277.31
2022-10-22T13:04:37.429Z,101272.69
2022-10-22T13:07:21.948Z,101271.59
2022-10-22T13:10:00.795Z,101265.34
2022-10-22T13:12:36.709Z,101259.34
2022-10-22T13:15:42.715Z,101268.06
2022-10-22T13:18:18.978Z,101270.25
2022-10-22T13:20:59.189Z,101266.16
2022-10-22T13:23:35.595Z,101254.41
2022-10-22T13:26:18.531Z,101255.25
2022-10-22T13:28:57.661Z,101246.25
2022-10-22T13:31:34.250Z,101239.72
2022-10-22T13:34:18.586Z,101241.63
2022-10-22T13:36:51.743Z,101240.53
2022-10-22T13:39:22.666Z,101235.59
2022-10-22T13:41:51.515Z,101226.09
2022-10-22T13:44:24.680Z,101230.97
2022-10-22T13:46:58.414Z,101231.22
2022-10-22T13:49:26.367Z,101236.38
2022-10-22T13:51:54.094Z,101233.09
2022-10-22T13:54:29.538Z,101232.53
2022-10-22T13:56:57.126Z,101228.44
2022-10-22T13:59:24.527Z,101228.97
2022-10-22T14:01:52.939Z,101228.16
2022-10-22T14:04:23.498Z,101219.44
2022-10-22T14:06:51.155Z,101214.00
2022-10-22T14:09:22.911Z,101216.72
2022-10-22T14:11:50.352Z,101218.06
2022-10-22T14:14:19.089Z,101208.53
2022-10-22T14:16:46.913Z,101220.53
2022-10-22T14:19:18.823Z,101214.81
2022-10-22T14:21:46.339Z,101212.63
2022-10-22T14:24:17.355Z,101224.59
2022-10-22T14:26:45.285Z,101212.88
2022-10-22T14:29:15.747Z,101205.28
2022-10-22T14:31:45.023Z,101208.81
2022-10-22T14:34:16.124Z,101201.16
2022-10-22T14:36:44.613Z,101215.31
2022-10-22T14:39:13.200Z,101210.16
2022-10-22T14:41:41.476Z,101201.66
2022-10-22T14:44:14.589Z,101207.13
2022-10-22T14:46:44.428Z,101203.22
2022-10-22T14:49:12.784Z,101209.47
2022-10-22T14:51:40.344Z,101205.16
2022-10-22T14:54:07.925Z,101209.78
2022-10-22T14:59:02.947Z,101210.25
2022-10-22T15:01:30.354Z,101208.09
2022-10-22T15:03:57.672Z,101203.47
2022-10-22T15:06:24.886Z,101207.28
2022-10-22T15:08:52.435Z,101214.59
2022-10-22T15:11:20.060Z,101204.81
2022-10-22T15:13:47.438Z,101204.81
2022-10-22T15:16:16.946Z,101212.19
2022-10-22T15:18:44.921Z,101211.91
2022-10-22T15:21:21.507Z,101215.94
2022-10-22T15:23:50.072Z,101207.22
2022-10-22T15:26:18.025Z,101203.38
2022-10-22T15:28:45.326Z,101206.28
2022-10-22T15:31:48.677Z,101204.09
2022-10-22T15:34:28.506Z,101201.34
2022-10-22T15:37:07.923Z,101216.28
2022-10-22T15:39:40.978Z,101211.09
2022-10-22T15:42:10.580Z,101212.13
2022-10-22T15:44:40.493Z,101207.78
2022-10-22T15:47:08.646Z,101204.50
2022-10-22T15:49:38.819Z,101201.72
2022-10-22T15:52:09.401Z,101200.06
2022-10-22T15:54:37.407Z,101209.34
2022-10-22T15:57:11.520Z,101206.34
2022-10-22T15:59:39.181Z,101216.91
2022-10-22T16:02:07.765Z,101213.38
2022-10-22T16:04:42.673Z,101214.16
2022-10-22T16:07:14.696Z,101216.31
2022-10-22T16:09:45.032Z,101213.00
2022-10-22T16:12:15.361Z,101213.22
2022-10-22T16:14:52.050Z,101211.84
2022-10-22T16:17:19.396Z,101210.97
2022-10-22T16:19:49.172Z,101218.81
2022-10-22T16:22:17.764Z,101222.31
2022-10-22T16:24:45.192Z,101224.22
2022-10-22T16:27:13.851Z,101219.88
2022-10-22T16:29:42.358Z,101217.34
2022-10-22T16:32:10.017Z,101216.50
2022-10-22T16:34:38.671Z,101218.63
2022-10-22T16:37:10.590Z,101219.69
2022-10-22T16:39:38.115Z,101223.16
2022-10-22T16:42:06.198Z,101232.88
2022-10-22T16:44:33.669Z,101231.22
2022-10-22T16:47:01.440Z,101235.53
2022-10-22T16:49:29.397Z,101224.59
2022-10-22T16:51:58.032Z,101226.19
2022-10-22T16:54:26.082Z,101226.44
2022-10-22T16:56:53.379Z,101228.03
2022-10-22T16:59:21.699Z,101228.28
2022-10-22T17:01:49.039Z,101227.41
2022-10-22T17:04:19.011Z,101225.22
2022-10-22T17:06:46.904Z,101233.63
2022-10-22T17:09:21.327Z,101237.31
2022-10-22T17:12:00.797Z,101238.38
2022-10-22T17:14:28.411Z,101240.56
2022-10-22T17:16:55.775Z,101232.66
2022-10-22T17:19:24.117Z,101233.47
2022-10-22T17:21:53.762Z,101234.78
2022-10-22T17:24:21.420Z,101237.50
2022-10-22T17:26:48.719Z,101245.09
2022-10-22T17:29:16.120Z,101247.81
2022-10-22T17:31:43.300Z,101249.69
2022-10-22T17:34:16.274Z,101252.09
2022-10-22T17:36:44.258Z,101250.19
2022-10-22T17:39:16.026Z,101256.13
2022-10-22T17:41:43.156Z,101254.56
2022-10-22T17:44:17.629Z,101270.09
2022-10-22T17:46:45.539Z,101269.28
2022-10-22T17:49:17.603Z,101279.53
2022-10-22T17:51:45.642Z,101283.09
2022-10-22T17:54:14.377Z,101282.25
2022-10-22T17:56:41.839Z,101280.63
2022-10-22T17:59:13.799Z,101299.31
2022-10-22T18:01:46.044Z,101297.34
2022-10-22T18:04:20.892Z,101300.53
2022-10-22T18:06:48.782Z,101298.09
2022-10-22T18:09:24.102Z,101304.81
2022-10-22T18:11:54.931Z,101303.69
2022-10-22T18:14:24.225Z,101308.53
2022-10-22T18:16:53.147Z,101310.91
2022-10-22T18:19:32.177Z,101325.63
2022-10-22T18:22:00.946Z,101329.97
2022-10-22T18:24:32.399Z,101326.69
2022-10-22T18:27:06.421Z,101324.72
2022-10-22T18:29:37.865Z,101319.03
2022-10-22T18:32:12.110Z,101324.00
2022-10-22T18:34:44.947Z,101324.25
2022-10-22T18:37:14.386Z,101324.00
2022-10-22T18:39:42.457Z,101329.66
2022-10-22T18:42:10.025Z,101330.97
2022-10-22T18:44:40.782Z,101331.22
2022-10-22T18:47:09.895Z,101333.34
2022-10-22T18:49:37.660Z,101341.75
2022-10-22T18:52:05.274Z,101346.03
2022-10-22T18:54:33.156Z,101334.94
2022-10-22T18:57:03.123Z,101345.78
2022-10-22T18:59:31.930Z,101345.53
2022-10-22T19:02:00.128Z,101341.16
2022-10-22T19:04:33.525Z,101344.97
2022-10-22T19:07:01.476Z,101355.81
2022-10-22T19:09:29.839Z,101342.81
2022-10-22T19:11:57.870Z,101347.44
2022-10-22T19:14:26.699Z,101348.25
2022-10-22T19:16:54.899Z,101357.44
2022-10-22T19:19:23.381Z,101356.53
2022-10-22T19:21:51.110Z,101356.47
2022-10-22T19:24:20.357Z,101361.31
2022-10-22T19:26:49.247Z,101354.72
2022-10-22T19:29:18.637Z,101365.56
2022-10-22T19:31:46.634Z,101359.16
2022-10-22T19:34:19.857Z,101362.63
2022-10-22T19:36:47.347Z,101367.22
2022-10-22T19:39:18.696Z,101368.28
2022-10-22T19:41:46.415Z,101365.81
2022-10-22T19:44:15.365Z,101377.97
2022-10-22T19:46:42.664Z,101388.00
2022-10-22T19:49:11.746Z,101370.91
2022-10-22T19:51:40.351Z,101379.88
2022-10-22T19:54:11.873Z,101375.16
2022-10-22T19:56:39.816Z,101377.22
2022-10-22T19:59:07.206Z,101375.31
2022-10-22T20:01:34.975Z,101377.69
2022-10-22T20:04:02.606Z,101381.22
2022-10-22T20:06:31.771Z,101376.28
2022-10-22T20:08:59.301Z,101383.22
2022-10-22T20:11:29.615Z,101377.47
2022-10-22T20:13:58.354Z,101391.41
2022-10-22T20:16:31.405Z,101393.28
2022-10-22T20:19:04.024Z,101395.44
2022-10-22T20:21:32.403Z,101386.34
2022-10-22T20:24:00.265Z,101392.63
2022-10-22T20:26:29.232Z,101384.38
2022-10-22T20:28:57.769Z,101381.09
2022-10-22T20:31:28.109Z,101380.25
2022-10-22T20:34:04.531Z,101376.31
2022-10-22T20:36:32.481Z,101382.03
2022-10-22T20:39:09.444Z,101385.34
2022-10-22T20:41:39.726Z,101382.78
2022-10-22T20:44:11.749Z,101376.31
2022-10-22T20:46:39.168Z,101375.94
2022-10-22T20:49:13.710Z,101379.16
2022-10-22T20:51:41.703Z,101370.66
2022-10-22T20:54:10.421Z,101370.66
2022-10-22T20:56:41.080Z,101375.50
2022-10-22T20:59:11.557Z,101374.91
2022-10-22T21:01:46.157Z,101379.28
2022-10-22T21:04:15.094Z,101381.13
2022-10-22T21:06:43.357Z,101379.41
2022-10-22T21:09:14.365Z,101377.31
2022-10-22T21:11:44.290Z,101369.06
2022-10-22T21:14:14.255Z,101375.78
2022-10-22T21:16:56.506Z,101384.34
2022-10-22T21:19:25.133Z,101386.09
2022-10-22T21:21:55.737Z,101376.72
2022-10-22T21:24:25.294Z,101371.53
2022-10-22T21:26:55.399Z,101373.31
2022-10-22T21:29:23.615Z,101376.38
2022-10-22T21:31:52.313Z,101376.00
2022-10-22T21:34:24.244Z,101381.66
2022-10-22T21:36:53.946Z,101373.50
2022-10-22T21:39:41.110Z,101381.72
2022-10-22T21:42:19.147Z,101388.22
2022-10-22T21:45:13.636Z,101390.91
2022-10-22T21:47:45.052Z,101387.59
2022-10-22T21:50:13.905Z,101396.56
2022-10-22T21:52:42.935Z,101390.84
2022-10-22T21:55:13.024Z,101385.66
2022-10-22T21:57:41.286Z,101387.84
2022-10-22T22:00:14.671Z,101385.66
2022-10-22T22:02:49.478Z,101385.66
2022-10-22T22:05:18.317Z,101373.97
2022-10-22T22:07:48.170Z,101384.91
2022-10-22T22:10:16.562Z,101381.25
2022-10-22T22:12:45.705Z,101379.50
2022-10-22T22:15:14.173Z,101381.84
2022-10-22T22:17:45.955Z,101389.13
2022-10-22T22:20:13.532Z,101381.34
2022-10-22T22:22:41.110Z,101390.88
2022-10-22T22:25:09.163Z,101394.19
2022-10-22T22:27:42.394Z,101392.56
2022-10-22T22:30:10.935Z,101389.56
2022-10-22T22:32:38.294Z,101393.38
2022-10-22T22:35:06.622Z,101395.03
2022-10-22T22:37:35.827Z,101404.88
2022-10-22T22:40:03.831Z,101401.13
2022-10-22T22:42:31.590Z,101399.09
2022-10-22T22:44:59.232Z,101382.91
2022-10-22T22:47:26.887Z,101398.78
2022-10-22T22:49:54.497Z,101387.59
2022-10-22T22:52:22.110Z,101385.50
2022-10-22T22:54:49.664Z,101388.38
2022-10-22T22:57:17.165Z,101384.09
2022-10-22T22:59:44.718Z,101383.41
2022-10-22T23:02:12.716Z,101391.22
2022-10-22T23:04:40.373Z,101381.25
2022-10-22T23:07:12.136Z,101381.69
2022-10-22T23:09:39.996Z,101375.03
2022-10-22T23:12:08.143Z,101372.47
2022-10-22T23:14:35.653Z,101364.81
2022-10-22T23:17:04.867Z,101347.56
2022-10-22T23:19:33.759Z,101353.91
2022-10-22T23:22:01.669Z,101341.00
2022-10-22T23:24:30.775Z,101343.81
2022-10-22T23:27:02.207Z,101343.47
2022-10-22T23:29:34.477Z,101333.97
2022-10-22T23:32:06.205Z,101328.78
2022-10-22T23:34:34.219Z,101342.06
2022-10-22T23:37:02.287Z,101348.97
2022-10-22T23:39:30.660Z,101344.03
2022-10-22T23:41:59.259Z,101357.53
2022-10-22T23:44:27.126Z,101357.47
2022-10-22T23:46:55.712Z,101349.44
2022-10-22T23:49:24.023Z,101350.34
2022-10-22T23:51:51.659Z,101341.63
2022-10-22T23:54:19.496Z,101347.81
2022-10-22T23:56:53.723Z,101357.22
2022-10-22T23:59:21.610Z,101354.69
